ADDS METAR Data INFO
IDs: Format: Raw Decoded Include TAF

Data at: 1930 UTC 19 Jul 2018

KJFX 191915Z AUTO 00000KT 10SM 31/23 A2995 RMK AO2 PWINO
KJFX 191855Z AUTO 00000KT 10SM 29/23 A2996 RMK AO2 PWINO
KJFX 191835Z AUTO 00000KT 10SM 29/23 A2996 RMK AO2 PWINO
KJFX 191815Z AUTO 00000KT 10SM 28/23 A2997 RMK AO2 PWINO
KJFX 191755Z AUTO 00000KT 10SM 27/23 A2997 RMK AO2 PWINO
KJFX 191735Z AUTO 00000KT 10SM 26/24 A2998 RMK AO2 PWINO
KJFX 191715Z AUTO 00000KT 10SM 26/24 A2998 RMK AO2 PWINO
KJFX 191655Z AUTO 00000KT 10SM 25/23 A2998 RMK AO2 PWINO
KJFX 191635Z AUTO 00000KT 10SM 24/24 A2999 RMK AO2 PWINO
KJFX 191615Z AUTO 00000KT 10SM 24/24 A2999 RMK AO2 PWINO
KJFX 191555Z AUTO 00000KT 10SM 25/25 A3000 RMK AO2 PWINO
KJFX 191535Z AUTO 30004KT 10SM 25/24 A3000 RMK AO2 PWINO
KJFX 191515Z AUTO 28009KT 10SM 25/24 A3000 RMK AO2 PWINO
KJFX 191455Z AUTO 25005KT 10SM 26/23 A3001 RMK AO2 LTG DSNT SW AND W PWINO
KJFX 191435Z AUTO 00000KT 10SM 26/23 A3000 RMK AO2 LTG DSNT SW-NW PWINO
KJFX 191415Z AUTO 00000KT 10SM 27/23 A2999 RMK AO2 LTG DSNT SW AND W PWINO
KJFX 191355Z AUTO 00000KT 10SM 28/22 A2998 RMK AO2 LTG DSNT SW AND W PWINO
KJFX 191335Z AUTO 00000KT 10SM 27/23 A2997 RMK AO2 LTG DSNT SW AND W PWINO
KJFX 191315Z AUTO 00000KT 10SM 26/23 A2997 RMK AO2 LTG DSNT SW-NW PWINO
KJFX 191255Z AUTO 00000KT 10SM 25/24 A2996 RMK AO2 LTG DSNT W AND NW PWINO
KJFX 191235Z AUTO 00000KT 10SM 24/24 A2996 RMK AO2 LTG DSNT SW AND NW PWINO
KJFX 191215Z AUTO 00000KT 9SM 24/24 A2996 RMK AO2 LTG DSNT S-NW PWINO
KJFX 191155Z AUTO 00000KT 3SM BR 24/24 A2995 RMK AO2 LTG DSNT NW PWINO
KJFX 191135Z AUTO 00000KT 3SM BR 24/24 A2995 RMK AO2 LTG DSNT NW PWINO
KJFX 191115Z AUTO 00000KT 3SM BR 23/23 A2995 RMK AO2 LTG DSNT SW AND NW PWINO
KJFX 191055Z AUTO 00000KT 2SM BR 23/23 A2995 RMK AO2 PWINO
KJFX 191035Z AUTO 00000KT 2 1/2SM BR 23/23 A2995 RMK AO2 VIS 2V3 PWINO
KJFX 191015Z AUTO 00000KT 1/2SM BR 23/23 A2994 RMK AO2 PWINO
KJFX 190955Z AUTO 00000KT 1/2SM FG 23/23 A2994 RMK AO2 PWINO
KJFX 190935Z AUTO 00000KT 1/4SM FG 23/23 A2993 RMK AO2 PWINO
KJFX 190915Z AUTO 00000KT 3/4SM BR 23/23 A2993 RMK AO2 PWINO
KJFX 190855Z AUTO 00000KT 1/2SM BR 23/23 A2992 RMK AO2 PWINO
KJFX 190835Z AUTO 00000KT 1 1/4SM BR 24/24 A2992 RMK AO2 VIS 3/4V2 PWINO
KJFX 190815Z AUTO 00000KT 1/4SM FG 24/24 A2992 RMK AO2 PWINO
KJFX 190755Z AUTO 00000KT 1/4SM FG 24/24 A2992 RMK AO2 PWINO
KJFX 190735Z AUTO 00000KT 1 1/4SM BR 24/24 A2992 RMK AO2 PWINO
KJFX 190715Z AUTO 00000KT 1 1/2SM BR 24/24 A2992 RMK AO2 PWINO
KJFX 190655Z AUTO 00000KT 4SM BR 25/25 A2992 RMK AO2 PWINO
KJFX 190635Z AUTO 00000KT 4SM BR 25/25 A2992 RMK AO2 PWINO
KJFX 190615Z AUTO 00000KT 3SM BR 25/25 A2993 RMK AO2 PWINO
KJFX 190555Z AUTO 00000KT 4SM BR 25/25 A2994 RMK AO2 PWINO
KJFX 190535Z AUTO 00000KT 1SM BR 25/25 A2994 RMK AO2 PWINO
KJFX 190515Z AUTO 00000KT 4SM BR 25/25 A2994 RMK AO2 PWINO
KJFX 190455Z AUTO 00000KT 4SM BR 25/26 A2994 RMK AO2 PWINO
KJFX 190435Z AUTO 00000KT 5SM BR 26/26 A2994 RMK AO2 PWINO
KJFX 190415Z AUTO 00000KT 5SM BR 26/26 A2995 RMK AO2 PWINO
KJFX 190355Z AUTO 00000KT 3SM BR 26/26 A2994 RMK AO2 PWINO
KJFX 190335Z AUTO 00000KT 4SM BR 26/26 A2994 RMK AO2 PWINO
KJFX 190315Z AUTO 00000KT 2 1/2SM BR 26/26 A2994 RMK AO2 PWINO
KJFX 190255Z AUTO 00000KT 5SM BR 26/26 A2994 RMK AO2 PWINO
KJFX 190235Z AUTO 00000KT 5SM BR 27/27 A2994 RMK AO2 PWINO
KJFX 190215Z AUTO 00000KT 8SM 27/27 A2993 RMK AO2 PWINO
KJFX 190155Z AUTO 00000KT 8SM 27/27 A2993 RMK AO2 PWINO
KJFX 190135Z AUTO 00000KT 10SM 27/27 A2992 RMK AO2 PWINO
KJFX 190115Z AUTO 00000KT 10SM 27/27 A2993 RMK AO2 LTG DSNT S PWINO
KJFX 190055Z AUTO 00000KT 10SM 28/27 A2992 RMK AO2 PWINO
KJFX 190035Z AUTO 00000KT 10SM 29/27 A2992 RMK AO2 PWINO
KJFX 190015Z AUTO 00000KT 10SM 30/26 A2991 RMK AO2 PWINO
KJFX 182355Z AUTO 00000KT 10SM 31/26 A2991 RMK AO2 PWINO
KJFX 182335Z AUTO 00000KT 10SM 31/26 A2990 RMK AO2 LTG DSNT S PWINO
KJFX 182315Z AUTO 00000KT 10SM 32/25 A2991 RMK AO2 PWINO
KJFX 182255Z AUTO 00000KT 10SM 33/25 A2991 RMK AO2 PWINO
KJFX 182235Z AUTO 00000KT 10SM 34/25 A2991 RMK AO2 PWINO
KJFX 182215Z AUTO 00000KT 10SM 35/24 A2991 RMK AO2 PWINO
KJFX 182155Z AUTO 00000KT 10SM 35/23 A2991 RMK AO2 PWINO
KJFX 182135Z AUTO 00000KT 10SM 35/22 A2991 RMK AO2 PWINO
KJFX 182115Z AUTO 00000KT 10SM 36/23 A2991 RMK AO2 PWINO
KJFX 182055Z AUTO 00000KT 10SM 37/23 A2991 RMK AO2 PWINO
KJFX 182035Z AUTO 00000KT 10SM 37/24 A2991 RMK AO2 PWINO
KJFX 182015Z AUTO 00000KT 10SM 37/23 A2992 RMK AO2 PWINO
KJFX 181955Z AUTO 00000KT 10SM 36/23 A2994 RMK AO2 PWINO
KJFX 181935Z AUTO 00000KT 10SM 37/23 A2994 RMK AO2 PWINO
KJFX 181915Z AUTO 03004KT 10SM 37/24 A2995 RMK AO2 PWINO
KJFX 181855Z AUTO 00000KT 10SM 36/24 A2996 RMK AO2 PWINO
KJFX 181835Z AUTO 00000KT 10SM 35/26 A2997 RMK AO2 PWINO
KJFX 181815Z AUTO 00000KT 10SM 35/25 A2997 RMK AO2 PWINO
KJFX 181755Z AUTO 00000KT 10SM 35/24 A2997 RMK AO2 PWINO
KJFX 181735Z AUTO 00000KT 10SM 34/25 A2998 RMK AO2 PWINO
KJFX 181715Z AUTO 00000KT 10SM 35/25 A2998 RMK AO2 PWINO
KJFX 181655Z AUTO 00000KT 10SM 34/25 A2999 RMK AO2 PWINO
KJFX 181635Z AUTO 00000KT 10SM 35/25 A3000 RMK AO2 PWINO
KJFX 181615Z AUTO 00000KT 10SM 34/25 A3000 RMK AO2 PWINO
KJFX 181555Z AUTO 00000KT 10SM 34/25 A3000 RMK AO2 PWINO
KJFX 181535Z AUTO 00000KT 10SM 33/24 A3001 RMK AO2 PWINO
KJFX 181515Z AUTO 00000KT 10SM 33/25 A3001 RMK AO2 PWINO
KJFX 181455Z AUTO 00000KT 10SM 32/24 A3000 RMK AO2 PWINO
KJFX 181435Z AUTO 00000KT 10SM 30/24 A3001 RMK AO2 PWINO
KJFX 181415Z AUTO 00000KT 10SM 30/24 A3001 RMK AO2 PWINO
KJFX 181355Z AUTO 00000KT 10SM 29/24 A3002 RMK AO2 PWINO
KJFX 181335Z AUTO 00000KT 10SM 28/24 A3002 RMK AO2 PWINO
KJFX 181315Z AUTO 00000KT 10SM 26/24 A3002 RMK AO2 PWINO
KJFX 181255Z AUTO 00000KT 10SM 25/25 A3002 RMK AO2 PWINO
KJFX 181235Z AUTO 00000KT 10SM 24/24 A3002 RMK AO2 PWINO
KJFX 181215Z AUTO 00000KT 9SM 23/23 A3001 RMK AO2 PWINO
KJFX 181155Z AUTO 00000KT 7SM 22/22 A3001 RMK AO2 LTG DSNT S PWINO
KJFX 181135Z AUTO 00000KT 3SM BR 22/22 A3001 RMK AO2 PWINO
KJFX 181115Z AUTO 00000KT 4SM BR 22/22 A3001 RMK AO2 PWINO
KJFX 181055Z AUTO 00000KT 3SM BR 22/22 A3000 RMK AO2 PWINO
KJFX 181035Z AUTO 00000KT 4SM BR 22/22 A2999 RMK AO2 PWINO
KJFX 181015Z AUTO 00000KT 5SM BR 22/22 A2999 RMK AO2 PWINO
KJFX 180955Z AUTO 00000KT 6SM BR 22/22 A2998 RMK AO2 PWINO
KJFX 180935Z AUTO 00000KT 6SM BR 23/23 A2998 RMK AO2 PWINO
KJFX 180915Z AUTO 00000KT 4SM BR 23/23 A2997 RMK AO2 PWINO
KJFX 180855Z AUTO 00000KT 6SM BR 23/23 A2997 RMK AO2 PWINO
KJFX 180835Z AUTO 00000KT 4SM BR 23/23 A2997 RMK AO2 PWINO
KJFX 180815Z AUTO 00000KT 10SM 23/23 A2997 RMK AO2 PWINO
KJFX 180755Z AUTO 00000KT 4SM BR 23/23 A2997 RMK AO2 PWINO
KJFX 180735Z AUTO 00000KT 7SM 23/23 A2997 RMK AO2 PWINO